G91692 / A6-AOT 7700 Squawk Report (6th of December, 2018)

Aircraft A320 Reg No. A6-AOT Age 1 years old
Model A320 Jet engines 2 First flight 20-07-17
Registered N/A Rollout 01-17 Delivered 04-08-17
Construction No. 7797 Line No. N/A Series 214(SL)
ADSHEX 8964DA Airline name Air Arabia Owner N/A
Airfield based Sharjah~ ~A6 First tracked 2017-08-04 13:27:38
Time Lat Lon Altitude Heading Speed Vertical Rate
2018-12-06 14:55:34 GMT 25.305378 55.562111 725 303 142 -768
2018-12-06 14:55:23 GMT 25.301233 55.569313 875 303 135 -704
2018-12-06 14:55:13 GMT 25.298208 55.574547 975 303 136 -704
2018-12-06 14:55:02 GMT 25.294647 55.580700 1,100 303 137 -704
2018-12-06 14:54:27 GMT 25.281967 55.602673 1,475 303 155 -960
2018-12-06 14:54:17 GMT 25.278097 55.609322 1,650 303 157 -960
2018-12-06 14:54:03 GMT 25.272045 55.619476 1,900 305 172 -960
2018-12-06 14:53:56 GMT 25.268974 55.624401 1,975 306 186 -512
2018-12-06 14:53:43 GMT 25.263062 55.633366 2,000 310 199 0
2018-12-06 14:53:32 GMT 25.256266 55.641762 2,000 322 209 0
2018-12-06 14:53:25 GMT 25.250168 55.646217 2,000 334 216 -192
2018-12-06 14:53:20 GMT 25.245667 55.648651 2,025 335 222 -384
2018-12-06 14:53:14 GMT 25.240540 55.651348 2,075 335 224 -640
2018-12-06 14:53:11 GMT 25.236061 55.653683 2,125 335 226 -640
2018-12-06 14:53:02 GMT 25.229141 55.657246 2,225 336 229 -704
2018-12-06 14:52:58 GMT 25.223557 55.660046 2,275 336 232 -640
2018-12-06 14:52:52 GMT 25.218884 55.662437 2,325 336 237 -512
2018-12-06 14:52:49 GMT 25.214647 55.664513 2,375 338 240 -704
2018-12-06 14:52:37 GMT 25.202356 55.669693 2,525 345 256 -1024
2018-12-06 14:52:32 GMT 25.197424 55.671299 2,600 346 257 -1152
2018-12-06 14:52:27 GMT 25.190348 55.673271 2,750 350 260 -2176
2018-12-06 14:52:20 GMT 25.183228 55.674541 3,000 355 260 -2624
2018-12-06 14:52:15 GMT 25.176754 55.675137 3,225 0 261 -2560
2018-12-06 14:52:10 GMT 25.171774 55.675186 3,400 5 263 -2368
2018-12-06 14:52:03 GMT 25.163393 55.674358 3,675 12 266 -2304
2018-12-06 14:52:00 GMT 25.158785 55.673218 3,800 17 269 -2048
2018-12-06 14:51:53 GMT 25.150358 55.670109 4,000 20 273 -1536
2018-12-06 14:51:49 GMT 25.146332 55.668488 4,075 20 273 -1664
2018-12-06 14:51:38 GMT 25.133057 55.663147 4,375 20 274 -1856
2018-12-06 14:51:30 GMT 25.123398 55.659283 4,625 20 274 -1792
2018-12-06 14:51:25 GMT 25.117586 55.656895 4,775 20 274 -1600
2018-12-06 14:51:20 GMT 25.110184 55.653835 5,350 21 282 -1600
2018-12-06 14:51:16 GMT 25.107344 55.652645 4,975 20 275 -1280
2018-12-06 14:51:06 GMT 25.094238 55.647228 5,175 20 276 -1152
2018-12-06 14:50:58 GMT 25.081694 55.641968 5,450 21 282 -1600
2018-12-06 14:50:47 GMT 25.070057 55.636993 5,650 21 288 -1088
2018-12-06 14:50:34 GMT 25.055008 55.630596 5,875 20 299 -1280
2018-12-06 14:50:23 GMT 25.041229 55.625103 6,100 18 315 -1472
2018-12-06 14:50:12 GMT 25.025505 55.619427 6,375 17 332 -1472
2018-12-06 14:50:02 GMT 25.008236 55.613621 6,650 16 353 -1344
2018-12-06 14:49:49 GMT 24.986959 55.606472 6,925 17 374 -1024
2018-12-06 14:49:41 GMT 24.975311 55.602520 7,000 17 380 -384
2018-12-06 14:49:37 GMT 24.969643 55.600616 7,050 17 381 -384
2018-12-06 14:49:30 GMT 24.956562 55.596210 7,150 16 383 -1024
2018-12-06 14:49:20 GMT 24.939377 55.590466 7,325 16 387 -1600
2018-12-06 14:49:14 GMT 24.927002 55.586468 7,550 16 392 -2240
2018-12-06 14:49:07 GMT 24.916031 55.582935 7,825 16 393 -2880
2018-12-06 14:48:56 GMT 24.896276 55.576363 8,450 17 389 -3520
2018-12-06 14:48:45 GMT 24.857685 55.562939 9,175 17 398 -1472
2018-12-06 14:48:34 GMT 24.857685 55.562939 9,000 17 397 -64
2018-12-06 14:48:26 GMT 24.845856 55.558826 9,000 17 397 0
2018-12-06 14:48:21 GMT 24.837204 55.555775 9,000 17 397 -64
2018-12-06 14:48:14 GMT 24.824890 55.551502 9,025 17 397 -256
2018-12-06 14:48:11 GMT 24.817703 55.548962 9,050 17 396 -448
2018-12-06 14:48:00 GMT 24.798523 55.542347 9,200 17 397 -1216
2018-12-06 14:47:53 GMT 24.787903 55.538635 9,475 17 400 -1536
2018-12-06 14:47:49 GMT 24.779058 55.535629 9,450 17 399 -1536
2018-12-06 14:47:44 GMT 24.771982 55.533195 9,550 17 400 -1536
2018-12-06 14:47:36 GMT 24.755503 55.527493 9,800 17 401 -1536
2018-12-06 14:47:24 GMT 24.734436 55.520172 10,125 17 401 -1728
2018-12-06 14:47:14 GMT 24.716398 55.513863 10,425 17 402 -1920
2018-12-06 14:47:04 GMT 24.698336 55.507645 10,775 17 408 -2240
2018-12-06 14:46:52 GMT 24.677574 55.500599 11,225 16 415 -2432
2018-12-06 14:46:48 GMT 24.672272 55.498859 13,100 15 417 -2688
2018-12-06 14:46:41 GMT 24.655563 55.494335 11,800 10 418 -3328
2018-12-06 14:46:34 GMT 24.635305 55.490856 13,100 8 418 -3584
2018-12-06 14:46:30 GMT 24.635305 55.490856 12,450 5 417 -3968
2018-12-06 14:46:24 GMT 24.626459 55.490078 13,100 359 421 -2496
2018-12-06 14:46:17 GMT 24.609608 55.490131 13,125 359 419 -2624
2018-12-06 14:46:09 GMT 24.593966 55.490700 13,475 359 425 -2496
2018-12-06 14:46:06 GMT 24.572226 55.491371 14,100 359 430 -3392
2018-12-06 14:45:57 GMT 24.572226 55.491371 13,900 359 428 -3072
2018-12-06 14:45:52 GMT 24.562263 55.491631 14,250 359 430 -3392
2018-12-06 14:45:46 GMT 24.550369 55.491993 14,525 359 431 -3200
2018-12-06 14:45:35 GMT 24.526840 55.492603 15,200 359 442 -1856
2018-12-06 14:45:30 GMT 24.515478 55.492825 15,225 0 448 -1792
2018-12-06 14:45:24 GMT 24.504307 55.492981 15,400 0 450 -1984
2018-12-06 14:45:21 GMT 24.498255 55.493031 15,500 0 452 -2240
2018-12-06 14:45:15 GMT 24.487549 55.493084 15,700 0 456 -2496
2018-12-06 14:45:12 GMT 24.478889 55.493134 15,875 0 458 -2560
2018-12-06 14:45:03 GMT 24.462799 55.493061 16,225 0 463 -2624
2018-12-06 14:44:55 GMT 24.443090 55.492928 16,675 0 467 -3200
2018-12-06 14:44:51 GMT 24.433640 55.492859 16,900 0 471 -3264
2018-12-06 14:44:44 GMT 24.420513 55.492722 17,400 0 471 -3264
2018-12-06 14:44:41 GMT 24.414181 55.492668 17,400 0 471 -3264
2018-12-06 14:44:32 GMT 24.393906 55.492352 17,975 1 472 -4096
2018-12-06 14:44:21 GMT 24.371679 55.491787 18,675 1 472 -4032
2018-12-06 14:44:13 GMT 24.351196 55.491131 19,300 1 474 -3904
2018-12-06 14:44:10 GMT 24.346802 55.490978 19,425 1 474 -3840
2018-12-06 14:44:00 GMT 24.324894 55.490234 19,975 1 477 -3456
2018-12-06 14:43:48 GMT 24.296997 55.489300 21,000 1 481 -3712
2018-12-06 14:43:39 GMT 24.255253 55.488007 21,400 1 499 -3200
2018-12-06 14:43:29 GMT 24.255253 55.488007 22,050 1 486 -3840
2018-12-06 14:43:18 GMT 24.227051 55.487263 22,750 1 494 -2688
2018-12-06 14:43:09 GMT 24.200317 55.486500 23,775 1 501 -4672
2018-12-06 14:42:56 GMT 24.176020 55.485622 24,175 1 501 -5056
2018-12-06 14:42:47 GMT 24.158144 55.485001 24,800 1 501 -4800
2018-12-06 14:42:37 GMT 24.132980 55.484009 25,700 2 498 -5120
2018-12-06 14:42:31 GMT 24.120623 55.483395 26,350 3 502 -576
2018-12-06 14:42:25 GMT 24.108194 55.482719 26,450 3 498 -3328
2018-12-06 14:42:14 GMT 24.082901 55.481159 26,875 3 500 -1664
2018-12-06 14:42:02 GMT 24.042618 55.478668 27,000 3 503 -256
2018-12-06 14:41:54 GMT 24.032919 55.478054 27,025 3 504 -64
2018-12-06 14:41:43 GMT 24.007095 55.476532 27,000 3 505 0
2018-12-06 14:41:31 GMT 23.979492 55.474903 26,975 3 505 0
2018-12-06 14:41:23 GMT 23.962830 55.473988 26,975 2 504 64
2018-12-06 14:41:20 GMT 23.954636 55.473480 26,975 2 503 128
2018-12-06 14:41:13 GMT 23.939255 55.472614 26,950 2 502 192
2018-12-06 14:41:10 GMT 23.928642 55.472046 26,950 2 502 128
2018-12-06 14:41:01 GMT 23.910067 55.471008 26,950 3 499 -128
2018-12-06 14:40:57 GMT 23.903000 55.470581 26,975 3 498 -320
2018-12-06 14:40:49 GMT 23.885239 55.469513 27,100 3 492 -1024
2018-12-06 14:40:45 GMT 23.875340 55.468830 27,225 3 488 -1344
2018-12-06 14:40:38 GMT 23.859371 55.467690 27,600 4 472 -3456
2018-12-06 14:40:35 GMT 23.851877 55.467068 27,575 4 474 -2112
2018-12-06 14:40:29 GMT 23.837446 55.465878 27,800 4 472 -3072
2018-12-06 14:40:25 GMT 23.829113 55.465153 28,025 4 471 -3968
2018-12-06 14:40:17 GMT 23.813005 55.463699 28,550 5 468 -4544
2018-12-06 14:40:14 GMT 23.804214 55.462849 28,850 5 467 -4864
2018-12-06 14:40:07 GMT 23.791637 55.461472 29,275 6 467 -3904
2018-12-06 14:40:01 GMT 23.776091 55.459660 29,675 6 470 -2880
2018-12-06 14:39:54 GMT 23.764709 55.458172 29,950 7 472 -3264
2018-12-06 14:39:50 GMT 23.753094 55.456291 30,300 9 473 -4096
2018-12-06 14:39:44 GMT 23.742188 55.454102 30,700 12 474 -4864
2018-12-06 14:39:41 GMT 23.732483 55.451813 31,050 14 475 -4736
2018-12-06 14:39:34 GMT 23.721588 55.448811 31,450 15 475 -4480
2018-12-06 14:39:28 GMT 23.706985 55.444386 31,925 15 473 -4032
2018-12-06 14:39:23 GMT 23.696594 55.441181 32,200 15 475 -2752
2018-12-06 14:39:14 GMT 23.676374 55.434990 32,725 15 477 -2560
2018-12-06 14:39:06 GMT 23.660828 55.430222 33,050 15 479 -2432
2018-12-06 14:39:02 GMT 23.652075 55.427528 33,200 15 481 -2496
2018-12-06 14:38:56 GMT 23.637690 55.423122 33,500 15 482 -2880
2018-12-06 14:38:50 GMT 23.627655 55.420025 33,750 15 482 -3328
2018-12-06 14:38:45 GMT 23.613342 55.415558 34,175 16 481 -3840
2018-12-06 14:38:42 GMT 23.607758 55.413849 34,325 16 480 -3968
2018-12-06 14:38:34 GMT 23.589788 55.408249 34,900 16 478 -3904
2018-12-06 14:38:30 GMT 23.583298 55.406189 35,075 16 478 -3776
2018-12-06 14:38:22 GMT 23.564232 55.400322 35,575 15 477 -3328
2018-12-06 14:38:19 GMT 23.559948 55.399025 35,675 15 477 -3392
2018-12-06 14:38:10 GMT 23.539280 55.392761 36,225 15 476 -3264
2018-12-06 14:38:07 GMT 23.535879 55.391743 36,300 15 476 -3072
2018-12-06 14:38:01 GMT 23.519541 55.386761 36,625 15 476 -2240
2018-12-06 14:37:57 GMT 23.514839 55.385334 36,700 15 476 -2048
2018-12-06 14:37:48 GMT 23.492615 55.378586 36,950 15 478 -640
2018-12-06 14:37:37 GMT 23.469131 55.371445 37,000 15 479 0
2018-12-06 14:37:33 GMT 23.462906 55.369595 37,000 15 479 0
2018-12-06 14:37:26 GMT 23.445429 55.364380 37,000 14 478 0
2018-12-06 14:37:17 GMT 23.424545 55.358410 37,000 15 479 0
2018-12-06 14:37:03 GMT 23.399185 55.350918 37,000 15 480 0
2018-12-06 14:36:53 GMT 23.375336 55.343777 37,000 15 481 0
2018-12-06 14:36:42 GMT 23.353909 55.337421 37,000 15 482 0
2018-12-06 14:36:31 GMT 23.329926 55.330246 37,000 15 482 0
2018-12-06 14:36:20 GMT 23.306099 55.323181 37,000 15 482 0
2018-12-06 14:36:09 GMT 23.282637 55.316162 37,000 15 482 0
2018-12-06 14:35:58 GMT 23.257404 55.308636 37,000 15 482 0
2018-12-06 14:35:47 GMT 23.234665 55.301830 37,000 15 482 0
2018-12-06 14:35:37 GMT 23.210037 55.294540 37,000 15 482 0
2018-12-06 14:35:23 GMT 23.180099 55.285400 37,000 18 486 0
2018-12-06 14:35:13 GMT 23.160919 55.278061 37,000 26 495 0
2018-12-06 14:35:05 GMT 23.137905 55.266827 37,000 27 496 0
2018-12-06 14:35:02 GMT 23.137905 55.266827 37,000 28 497 0
2018-12-06 14:34:55 GMT 23.124498 55.258892 37,000 31 502 0
2018-12-06 14:34:52 GMT 23.116653 55.253792 37,000 33 505 0
2018-12-06 14:34:45 GMT 23.104523 55.245052 37,000 36 509 -128
2018-12-06 14:34:41 GMT 23.093821 55.236408 37,025 39 512 -64
2018-12-06 14:34:34 GMT 23.084198 55.227871 37,025 41 515 0
2018-12-06 14:34:30 GMT 23.075272 55.219234 37,025 44 518 64
2018-12-06 14:34:16 GMT 23.045929 55.184277 37,025 50 523 0
2018-12-06 14:34:07 GMT 23.038971 55.174088 37,025 56 529 64
2018-12-06 14:33:56 GMT 23.024643 55.149670 37,000 62 533 64
2018-12-06 14:33:44 GMT 23.002075 55.093838 37,000 72 537 0
2018-12-06 14:33:34 GMT 23.002075 55.093838 37,000 74 538 0
2018-12-06 14:33:28 GMT 22.994711 55.065205 37,000 77 538 0
2018-12-06 14:33:23 GMT 22.994711 55.065205 37,000 77 538 0
2018-12-06 14:33:15 GMT 22.991547 55.049545 37,000 77 537 0
2018-12-06 14:33:11 GMT 22.988846 55.035961 37,000 77 537 0
2018-12-06 14:32:56 GMT 22.978409 54.983128 37,000 77 538 0
2018-12-06 14:32:46 GMT 22.975578 54.968769 37,000 77 538 0
2018-12-06 14:32:37 GMT 22.971294 54.947155 37,000 77 538 0
2018-12-06 14:32:27 GMT 22.965614 54.918415 37,000 77 538 0
2018-12-06 14:32:15 GMT 22.960262 54.891560 37,000 77 537 0
2018-12-06 14:32:06 GMT 22.954559 54.862724 37,000 77 537 0
2018-12-06 14:31:55 GMT 22.949137 54.835155 37,000 77 538 0
2018-12-06 14:31:43 GMT 22.943481 54.806847 37,025 77 538 0
2018-12-06 14:31:32 GMT 22.937805 54.778133 37,000 77 538 0
2018-12-06 14:31:22 GMT 22.932312 54.750465 37,000 77 538 64
2018-12-06 14:31:12 GMT 22.926046 54.718983 37,000 77 538 0
2018-12-06 14:30:59 GMT 22.920553 54.691364 37,000 77 538 0
2018-12-06 14:30:48 GMT 22.914597 54.661427 37,000 77 538 0
2018-12-06 14:30:37 GMT 22.908783 54.632214 37,000 77 538 0
2018-12-06 14:30:28 GMT 22.903885 54.607693 37,000 77 538 -64
2018-12-06 14:30:17 GMT 22.897934 54.577930 37,000 77 538 0
2018-12-06 14:30:06 GMT 22.892529 54.550983 37,000 77 538 64
2018-12-06 14:29:56 GMT 22.886948 54.523251 37,000 77 538 0
2018-12-06 14:29:46 GMT 22.881454 54.495884 37,000 77 538 0
2018-12-06 14:29:34 GMT 22.875490 54.466297 37,000 77 538 0
2018-12-06 14:29:24 GMT 22.869965 54.438805 37,000 77 537 0
2018-12-06 14:29:14 GMT 22.864197 54.410141 37,000 77 537 0
2018-12-06 14:29:03 GMT 22.858887 54.383873 37,000 77 537 0
2018-12-06 14:28:52 GMT 22.853052 54.354809 37,000 77 537 0
2018-12-06 14:28:42 GMT 22.847652 54.328003 37,000 77 537 0
2018-12-06 14:28:35 GMT 22.843460 54.307419 37,000 77 537 0
2018-12-06 14:28:30 GMT 22.841629 54.298229 37,000 77 537 0
2018-12-06 14:28:24 GMT 22.837364 54.277088 37,000 77 537 0
2018-12-06 14:28:20 GMT 22.836246 54.271545 37,000 77 537 0
2018-12-06 14:28:10 GMT 22.830475 54.242908 37,000 77 538 0
2018-12-06 14:27:59 GMT 22.824554 54.213585 37,000 77 538 0
2018-12-06 14:27:48 GMT 22.818697 54.184521 37,000 77 538 0
2018-12-06 14:27:37 GMT 22.812878 54.155884 37,000 77 538 0
2018-12-06 14:27:25 GMT 22.807198 54.127758 37,000 77 538 0
2018-12-06 14:27:15 GMT 22.801519 54.099884 37,000 78 538 0
2018-12-06 14:27:05 GMT 22.796448 54.072559 37,000 79 539 0
2018-12-06 14:26:53 GMT 22.791977 54.043427 37,000 82 539 0
2018-12-06 14:26:43 GMT 22.788576 54.015350 37,000 83 539 0
2018-12-06 14:26:31 GMT 22.785784 53.984783 37,000 85 539 0
2018-12-06 14:26:21 GMT 22.784107 53.957623 37,000 87 539 0
2018-12-06 14:26:09 GMT 22.783131 53.923695 37,000 89 539 0
2018-12-06 14:25:59 GMT 22.783270 53.896484 37,000 91 538 0
2018-12-06 14:25:49 GMT 22.784155 53.866882 37,000 92 538 0
2018-12-06 14:25:39 GMT 22.785004 53.842247 37,000 92 538 0
2018-12-06 14:25:27 GMT 22.786057 53.810184 37,000 92 538 0
2018-12-06 14:25:16 GMT 22.787109 53.778427 37,000 92 538 0
2018-12-06 14:25:05 GMT 22.787979 53.752857 37,000 92 539 0
2018-12-06 14:24:55 GMT 22.788902 53.724976 37,000 92 539 0
2018-12-06 14:24:45 GMT 22.790766 53.667297 37,000 92 539 0
2018-12-06 14:24:33 GMT 22.790766 53.667297 37,000 92 539 0
2018-12-06 14:24:24 GMT 22.791641 53.639198 37,000 92 539 0
2018-12-06 14:24:10 GMT 22.792877 53.599598 37,000 91 539 0
2018-12-06 14:24:00 GMT 22.793564 53.578026 37,000 91 539 0
2018-12-06 14:23:51 GMT 22.794434 53.550808 37,000 92 539 0
2018-12-06 14:23:40 GMT 22.795280 53.524017 37,000 91 539 0
2018-12-06 14:23:29 GMT 22.796219 53.493980 37,000 91 539 0
2018-12-06 14:23:18 GMT 22.797235 53.462017 37,000 91 539 0
2018-12-06 14:23:06 GMT 22.798120 53.432617 37,000 91 539 0
2018-12-06 14:22:58 GMT 22.798819 53.409729 37,000 91 539 0
2018-12-06 14:22:47 GMT 22.799795 53.377888 37,000 91 539 0
2018-12-06 14:22:30 GMT 22.801208 53.330532 37,000 91 540 0
2018-12-06 14:22:27 GMT 22.801426 53.322601 37,000 91 540 0
2018-12-06 14:22:20 GMT 22.801985 53.303936 37,000 91 540 0
2018-12-06 14:22:15 GMT 22.802311 53.293152 37,000 91 540 0
2018-12-06 14:22:05 GMT 22.803102 53.266956 37,000 91 540 0
2018-12-06 14:21:55 GMT 22.803986 53.237000 37,000 91 540 0
2018-12-06 14:21:43 GMT 22.804871 53.207600 37,000 91 540 0
2018-12-06 14:21:33 GMT 22.805662 53.180084 37,000 91 540 0
2018-12-06 14:21:22 GMT 22.806519 53.150257 37,000 91 540 0
2018-12-06 14:21:12 GMT 22.807291 53.122303 37,000 91 540 0
2018-12-06 14:21:00 GMT 22.808270 53.089092 37,000 91 539 0
2018-12-06 14:20:50 GMT 22.808990 53.063316 37,000 91 539 0
2018-12-06 14:20:34 GMT 22.810181 53.022068 37,000 91 539 0
2018-12-06 14:20:26 GMT 22.810783 53.000641 37,000 91 539 0
2018-12-06 14:20:20 GMT 22.811234 52.984062 37,000 91 539 0
2018-12-06 14:20:15 GMT 22.811600 52.970581 37,000 91 539 0
2018-12-06 14:20:09 GMT 22.812086 52.954762 37,000 91 539 0
2018-12-06 14:20:06 GMT 22.812412 52.942657 37,000 91 539 0
2018-12-06 14:19:51 GMT 22.813482 52.901661 37,000 91 539 0
2018-12-06 14:19:48 GMT 22.813705 52.893177 37,000 91 539 0
2018-12-06 14:19:44 GMT 22.814026 52.882889 37,000 91 540 0
2018-12-06 14:19:33 GMT 22.814804 52.853226 37,000 91 540 0
2018-12-06 14:19:26 GMT 22.815308 52.836197 37,000 91 540 0
2018-12-06 14:19:21 GMT 22.815718 52.820690 37,000 91 540 0
2018-12-06 14:19:14 GMT 22.816183 52.803955 37,000 91 540 0
2018-12-06 14:19:09 GMT 22.816509 52.791035 37,000 91 540 0
2018-12-06 14:19:04 GMT 22.816864 52.777122 37,000 91 540 0
2018-12-06 14:18:51 GMT 22.817905 52.740021 36,975 91 540 0
2018-12-06 14:18:47 GMT 22.818146 52.731529 37,000 91 540 -64
2018-12-06 14:18:36 GMT 22.818930 52.703297 37,000 91 540 0
2018-12-06 14:18:26 GMT 22.819721 52.673340 37,000 91 540 0
2018-12-06 14:18:14 GMT 22.820480 52.643238 37,000 91 540 0
2018-12-06 14:18:03 GMT 22.821259 52.613827 37,000 91 540 0
2018-12-06 14:17:51 GMT 22.822048 52.582397 37,000 91 539 0
2018-12-06 14:17:42 GMT 22.822769 52.556347 37,000 91 539 0
2018-12-06 14:17:34 GMT 22.823353 52.534130 37,000 91 539 0
2018-12-06 14:17:29 GMT 22.823685 52.520241 37,000 91 539 0
2018-12-06 14:17:18 GMT 22.824326 52.492725 37,000 91 539 0
2018-12-06 14:17:06 GMT 22.824966 52.460365 37,000 91 539 0
2018-12-06 14:17:01 GMT 22.825354 52.442120 37,000 91 540 0
2018-12-06 14:16:58 GMT 22.825470 52.436344 37,000 91 540 0
2018-12-06 14:16:49 GMT 22.825974 52.412876 37,000 91 540 0
2018-12-06 14:16:46 GMT 22.826065 52.407482 37,000 91 540 0
2018-12-06 14:16:35 GMT 22.826706 52.376419 37,000 91 540 0
2018-12-06 14:16:25 GMT 22.827263 52.348225 37,000 91 540 0
2018-12-06 14:16:15 GMT 22.827805 52.321388 36,975 91 540 0
2018-12-06 14:16:04 GMT 22.828379 52.292889 37,000 91 539 0
2018-12-06 14:15:54 GMT 22.828903 52.264957 37,000 91 539 0
2018-12-06 14:15:49 GMT 22.829269 52.248482 37,000 91 539 0
2018-12-06 14:15:41 GMT 22.829636 52.228004 37,000 91 539 0
2018-12-06 14:15:31 GMT 22.830139 52.203438 37,000 91 540 0
2018-12-06 14:15:20 GMT 22.830708 52.173870 37,000 91 540 0
2018-12-06 14:15:07 GMT 22.831421 52.135921 37,000 91 540 0
2018-12-06 14:15:00 GMT 22.831778 52.116596 37,000 91 540 0
2018-12-06 14:14:49 GMT 22.832336 52.086895 37,000 91 540 0
2018-12-06 14:14:15 GMT 22.833939 51.998940 37,000 91 541 0
2018-12-06 14:14:09 GMT 22.834291 51.980438 37,000 91 541 0
2018-12-06 14:14:05 GMT 22.834896 51.944733 37,000 91 541 0
2018-12-06 14:13:55 GMT 22.834896 51.944733 37,000 91 541 0
2018-12-06 14:13:44 GMT 22.835449 51.912949 37,025 91 541 0
2018-12-06 14:13:31 GMT 22.836090 51.875843 37,000 91 541 0
2018-12-06 14:13:23 GMT 22.836479 51.856487 37,000 91 541 0
2018-12-06 14:13:00 GMT 22.837503 51.796368 37,000 91 542 0
2018-12-06 14:12:50 GMT 22.838013 51.766678 37,000 91 541 0
2018-12-06 14:12:29 GMT 22.838947 51.710766 37,025 91 541 0
2018-12-06 14:12:18 GMT 22.839478 51.679737 37,025 91 541 0
2018-12-06 14:12:07 GMT 22.839972 51.651459 37,025 91 542 0
2018-12-06 14:11:57 GMT 22.840437 51.621655 37,025 91 542 0
2018-12-06 14:11:46 GMT 22.840902 51.594543 37,025 91 542 0
2018-12-06 14:11:36 GMT 22.841368 51.565296 37,025 91 541 0
2018-12-06 14:11:19 GMT 22.842041 51.522633 37,025 90 541 0
2018-12-06 14:11:12 GMT 22.842299 51.503296 37,000 90 541 0
2018-12-06 14:10:52 GMT 22.844101 51.446426 37,000 93 539 0
2018-12-06 14:10:40 GMT 22.846115 51.416779 37,000 94 538 64
2018-12-06 14:10:30 GMT 22.847992 51.390049 37,000 94 537 64
2018-12-06 14:09:33 GMT 22.858406 51.238708 37,000 94 533 0
2018-12-06 14:05:23 GMT 22.902374 50.576210 37,000 93 516 0
2018-12-06 14:04:48 GMT 22.908030 50.486603 37,025 93 516 -64
2018-12-06 14:04:41 GMT 22.909101 50.469311 37,025 93 517 -64
2018-12-06 14:04:31 GMT 22.910776 50.442707 37,025 93 517 0
2018-12-06 14:04:19 GMT 22.912779 50.411682 37,025 93 518 0
2018-12-06 14:04:08 GMT 22.914551 50.383598 37,025 93 519 0
2018-12-06 14:03:55 GMT 22.916643 50.350292 37,025 93 519 0
2018-12-06 14:03:48 GMT 22.917807 50.331623 37,025 93 519 0
2018-12-06 14:03:38 GMT 22.919495 50.304550 37,025 93 519 0
2018-12-06 14:03:27 GMT 22.921206 50.276947 37,025 93 519 0
2018-12-06 14:03:13 GMT 22.923386 50.241528 37,025 93 520 0
2018-12-06 14:03:04 GMT 22.924850 50.218407 37,025 93 520 64
2018-12-06 14:02:53 GMT 22.926651 50.189411 37,000 93 520 0
2018-12-06 14:02:43 GMT 22.928375 50.161976 37,000 93 520 0
2018-12-06 14:02:32 GMT 22.929977 50.134960 37,000 93 520 0
2018-12-06 14:02:16 GMT 22.932610 50.091755 37,000 93 519 64
2018-12-06 14:02:12 GMT 22.933262 50.081379 37,000 93 519 64
2018-12-06 14:02:01 GMT 22.935013 50.053261 36,975 93 519 64
2018-12-06 14:01:50 GMT 22.936752 50.024998 36,975 93 518 64
2018-12-06 14:01:39 GMT 22.938477 49.995880 36,975 93 518 0
2018-12-06 14:01:28 GMT 22.940105 49.968769 36,975 93 517 0
2018-12-06 14:01:13 GMT 22.942383 49.929714 36,975 93 516 0
2018-12-06 14:01:06 GMT 22.943481 49.911690 36,975 93 515 0
2018-12-06 14:00:55 GMT 22.945129 49.883621 36,975 93 516 0
2018-12-06 14:00:45 GMT 22.946640 49.858353 36,975 93 516 -64
2018-12-06 14:00:23 GMT 22.950027 49.800926 37,000 93 515 0
2018-12-06 14:00:13 GMT 22.951557 49.775799 37,000 93 515 0
2018-12-06 14:00:02 GMT 22.953234 49.747467 37,000 93 515 0
2018-12-06 13:59:52 GMT 22.954815 49.720966 37,000 93 515 0
2018-12-06 13:59:41 GMT 22.956528 49.691761 36,975 93 516 0
2018-12-06 13:59:30 GMT 22.958084 49.665195 37,000 93 516 0
2018-12-06 13:59:19 GMT 22.959843 49.635418 37,000 93 515 -64
2018-12-06 13:59:09 GMT 22.961332 49.609631 37,000 93 515 0
2018-12-06 13:58:58 GMT 22.962891 49.582447 37,000 93 517 0
2018-12-06 13:58:47 GMT 22.964638 49.552868 37,000 93 516 0
2018-12-06 13:58:35 GMT 22.966415 49.521973 37,000 93 516 0
2018-12-06 13:58:25 GMT 22.967834 49.496655 37,000 93 516 0
2018-12-06 13:58:14 GMT 22.969479 49.468586 37,000 93 517 0
2018-12-06 13:58:03 GMT 22.971062 49.440662 37,000 93 517 0
2018-12-06 13:57:52 GMT 22.972691 49.412182 37,000 93 517 0
2018-12-06 13:57:42 GMT 22.974197 49.385143 37,000 93 517 0
2018-12-06 13:57:29 GMT 22.976074 49.352234 37,000 93 517 0
2018-12-06 13:57:19 GMT 22.977539 49.325020 37,000 93 517 0
2018-12-06 13:57:08 GMT 22.979023 49.297943 37,000 93 517 0
2018-12-06 13:56:58 GMT 22.980558 49.270733 37,025 93 517 0
2018-12-06 13:56:46 GMT 22.982162 49.240822 37,025 93 518 0
2018-12-06 13:56:36 GMT 22.983627 49.214405 37,025 93 518 0
2018-12-06 13:56:25 GMT 22.985184 49.186142 37,025 93 518 0
2018-12-06 13:56:15 GMT 22.986603 49.160221 37,025 93 518 0
2018-12-06 13:56:04 GMT 22.988148 49.131824 37,000 93 518 0
2018-12-06 13:55:52 GMT 22.989822 49.099426 37,000 92 518 0
2018-12-06 13:55:41 GMT 22.991079 49.072979 37,000 92 518 0
2018-12-06 13:55:31 GMT 22.992371 49.046116 37,000 93 518 0
2018-12-06 13:55:20 GMT 22.994059 49.017994 37,000 94 517 0
2018-12-06 13:55:10 GMT 22.996201 48.991138 37,000 95 517 0
2018-12-06 13:54:59 GMT 22.998388 48.964283 37,000 95 517 64
2018-12-06 13:54:48 GMT 23.000856 48.934631 37,000 94 516 0
2018-12-06 13:54:33 GMT 23.003975 48.896179 37,000 95 517 0
2018-12-06 13:54:27 GMT 23.005234 48.880821 36,975 94 516 0
2018-12-06 13:54:14 GMT 23.007843 48.848061 37,000 94 516 0
2018-12-06 13:54:05 GMT 23.009747 48.824463 37,000 94 516 0
2018-12-06 13:53:55 GMT 23.011889 48.797657 37,000 94 516 0
2018-12-06 13:53:43 GMT 23.014389 48.766361 37,000 94 516 0
2018-12-06 13:53:34 GMT 23.016266 48.742893 37,000 94 516 0
2018-12-06 13:53:09 GMT 23.021385 48.679096 37,000 94 516 0
2018-12-06 13:53:00 GMT 23.023178 48.657299 37,000 94 516 0
2018-12-06 13:52:50 GMT 23.025284 48.630432 37,000 94 517 0
2018-12-06 13:52:40 GMT 23.027296 48.604992 37,000 94 517 0
2018-12-06 13:52:28 GMT 23.029718 48.573963 37,000 94 517 0
2018-12-06 13:52:17 GMT 23.031967 48.545689 37,000 94 517 0
2018-12-06 13:52:08 GMT 23.033752 48.522915 37,000 94 517 0
2018-12-06 13:51:57 GMT 23.035995 48.494202 37,000 94 517 0
2018-12-06 13:51:47 GMT 23.038147 48.466286 37,000 94 518 0
2018-12-06 13:51:34 GMT 23.040710 48.433678 37,025 94 518 -64
2018-12-06 13:51:25 GMT 23.042521 48.409985 37,025 94 518 -64
2018-12-06 13:51:15 GMT 23.044521 48.384350 37,025 94 518 0
2018-12-06 13:51:04 GMT 23.046803 48.355053 37,025 94 519 0
2018-12-06 13:50:53 GMT 23.048897 48.328045 37,025 94 519 0
2018-12-06 13:50:43 GMT 23.051039 48.301037 37,025 94 520 64
2018-12-06 13:50:32 GMT 23.053253 48.272575 37,000 94 520 0
2018-12-06 13:50:21 GMT 23.055462 48.243866 37,000 94 520 0
2018-12-06 13:50:10 GMT 23.057510 48.216946 37,000 94 520 0
2018-12-06 13:50:00 GMT 23.059650 48.188934 37,000 94 520 0
2018-12-06 13:49:49 GMT 23.061859 48.159969 37,000 94 520 0
2018-12-06 13:49:38 GMT 23.063887 48.133038 37,000 94 520 0
2018-12-06 13:49:27 GMT 23.066029 48.105213 37,000 94 520 0
2018-12-06 13:49:16 GMT 23.068222 48.076523 37,000 94 519 64
2018-12-06 13:49:06 GMT 23.070236 48.049503 36,975 94 519 0
2018-12-06 13:48:55 GMT 23.072342 48.021439 36,975 94 519 0
2018-12-06 13:48:44 GMT 23.074493 47.992924 37,000 94 519 0
2018-12-06 13:48:33 GMT 23.076645 47.964661 37,000 94 518 0
2018-12-06 13:48:22 GMT 23.078751 47.936195 37,000 94 518 0
2018-12-06 13:48:12 GMT 23.080811 47.909229 37,000 94 517 0
2018-12-06 13:48:01 GMT 23.082916 47.881016 37,000 94 517 0
2018-12-06 13:47:50 GMT 23.084976 47.853600 37,000 94 517 0
2018-12-06 13:47:39 GMT 23.087128 47.824635 37,000 94 517 0
2018-12-06 13:47:27 GMT 23.089462 47.793625 37,000 94 518 0
2018-12-06 13:47:18 GMT 23.091202 47.770302 37,000 94 518 0
2018-12-06 13:47:08 GMT 23.093216 47.742718 37,000 94 518 -64
2018-12-06 13:46:57 GMT 23.095322 47.714371 37,000 94 517 0
2018-12-06 13:46:46 GMT 23.097313 47.686817 37,000 94 518 0
2018-12-06 13:46:35 GMT 23.099314 47.659351 37,000 94 518 0
2018-12-06 13:46:25 GMT 23.101408 47.631123 37,000 94 519 -64
2018-12-06 13:46:13 GMT 23.103653 47.600365 37,000 94 519 0
2018-12-06 13:46:03 GMT 23.105392 47.575695 37,000 94 519 0
2018-12-06 13:45:52 GMT 23.107544 47.545883 37,000 94 519 0
2018-12-06 13:45:41 GMT 23.109554 47.518261 37,000 94 519 0
2018-12-06 13:45:30 GMT 23.111664 47.489552 37,000 94 519 0
2018-12-06 13:45:19 GMT 23.113651 47.461903 37,000 94 519 0
2018-12-06 13:45:09 GMT 23.115601 47.434769 37,025 94 519 -64
2018-12-06 13:44:58 GMT 23.117655 47.406311 37,025 94 519 0
2018-12-06 13:44:47 GMT 23.119703 47.377728 37,000 94 520 64
2018-12-06 13:44:36 GMT 23.121735 47.349476 37,000 94 520 0
2018-12-06 13:44:26 GMT 23.123568 47.323608 37,025 94 521 0
2018-12-06 13:44:15 GMT 23.125580 47.295094 37,025 94 521 0
2018-12-06 13:44:04 GMT 23.127617 47.266796 37,025 94 521 0
2018-12-06 13:43:53 GMT 23.129654 47.237717 37,025 94 521 0
2018-12-06 13:43:42 GMT 23.131622 47.209301 37,025 94 521 0
2018-12-06 13:43:32 GMT 23.133575 47.181499 37,000 94 522 64
2018-12-06 13:43:25 GMT 23.134872 47.162857 37,000 94 522 0
2018-12-06 13:43:22 GMT 23.135391 47.155407 37,000 94 522 0
2018-12-06 13:43:16 GMT 23.136461 47.140045 37,000 94 522 0
2018-12-06 13:43:11 GMT 23.137344 47.127602 37,000 94 522 0
2018-12-06 13:43:08 GMT 23.138186 47.115734 37,000 94 522 0
2018-12-06 13:43:00 GMT 23.139359 47.098888 37,000 94 521 0
2018-12-06 13:42:57 GMT 23.139954 47.089893 37,000 94 521 0
2018-12-06 13:42:47 GMT 23.141922 47.061634 37,000 94 521 0
2018-12-06 13:42:36 GMT 23.143890 47.033218 37,000 94 521 0
2018-12-06 13:42:25 GMT 23.145721 47.006603 37,000 94 521 -64
2018-12-06 13:42:15 GMT 23.147589 46.979370 37,000 94 520 0
2018-12-06 13:42:04 GMT 23.149429 46.952721 37,000 94 520 0
2018-12-06 13:41:55 GMT 23.151031 46.929550 37,000 94 520 0
2018-12-06 13:41:44 GMT 23.152943 46.901806 37,000 94 520 0
2018-12-06 13:41:34 GMT 23.154968 46.871971 37,000 94 520 64
2018-12-06 13:41:23 GMT 23.156712 46.845856 37,000 94 520 64
2018-12-06 13:41:11 GMT 23.158714 46.816151 37,000 94 521 0
2018-12-06 13:41:01 GMT 23.160553 46.789722 37,000 94 520 -64
2018-12-06 13:40:50 GMT 23.162476 46.761108 37,000 94 519 0
2018-12-06 13:40:39 GMT 23.164444 46.732243 37,000 94 519 0
2018-12-06 13:40:28 GMT 23.166321 46.703930 37,000 94 519 0
2018-12-06 13:40:18 GMT 23.168152 46.676662 37,000 94 519 0
2018-12-06 13:40:07 GMT 23.170029 46.648399 37,000 94 519 0
2018-12-06 13:40:00 GMT 23.171356 46.629173 37,000 94 519 -64
2018-12-06 13:39:56 GMT 23.171934 46.620178 37,000 94 519 -64
2018-12-06 13:39:45 GMT 23.173937 46.590321 37,025 94 519 0
2018-12-06 13:39:35 GMT 23.175659 46.564636 37,025 94 519 0
2018-12-06 13:39:24 GMT 23.177568 46.535847 37,025 94 519 0
2018-12-06 13:39:17 GMT 23.178864 46.516262 37,000 94 519 0
2018-12-06 13:39:13 GMT 23.179382 46.508331 37,025 94 519 0
2018-12-06 13:39:07 GMT 23.180408 46.492512 37,000 93 518 0
2018-12-06 13:39:02 GMT 23.181198 46.480305 37,000 93 518 0
2018-12-06 13:38:57 GMT 23.182222 46.464233 37,025 93 518 0
2018-12-06 13:38:51 GMT 23.183029 46.452145 37,025 94 518 0
2018-12-06 13:38:41 GMT 23.184814 46.425224 37,025 94 517 0
2018-12-06 13:38:30 GMT 23.186737 46.396713 37,025 94 517 0
2018-12-06 13:38:19 GMT 23.188522 46.369797 37,025 94 517 0
2018-12-06 13:38:16 GMT 23.189253 46.358288 37,025 94 518 0
2018-12-06 13:38:05 GMT 23.191021 46.331329 37,000 93 518 0
2018-12-06 13:37:56 GMT 23.192789 46.304119 37,000 93 517 0
2018-12-06 13:37:45 GMT 23.194427 46.278358 37,000 93 517 64
2018-12-06 13:37:36 GMT 23.195755 46.257687 36,975 93 517 64
2018-12-06 13:37:23 GMT 23.198051 46.221569 36,975 93 517 64
2018-12-06 13:37:13 GMT 23.199587 46.197765 36,975 93 517 64
2018-12-06 13:37:03 GMT 23.201357 46.170551 36,975 93 517 0
2018-12-06 13:36:52 GMT 23.203033 46.143528 36,975 93 516 0
2018-12-06 13:36:40 GMT 23.205034 46.111908 36,975 93 516 -64
2018-12-06 13:36:29 GMT 23.206802 46.083527 37,000 93 515 -64
2018-12-06 13:36:18 GMT 23.208479 46.056671 37,000 93 515 0
2018-12-06 13:36:11 GMT 23.209736 46.036835 37,000 93 515 0
2018-12-06 13:36:08 GMT 23.210247 46.029102 37,000 93 515 0
2018-12-06 13:36:01 GMT 23.211411 46.010643 37,000 93 515 -64
2018-12-06 13:35:56 GMT 23.212097 45.999557 37,025 93 515 -64
2018-12-06 13:35:50 GMT 23.213272 45.980835 37,025 93 515 -64
2018-12-06 13:35:46 GMT 23.213791 45.972439 37,025 93 515 -64
2018-12-06 13:35:39 GMT 23.214903 45.954540 37,025 93 515 -64
2018-12-06 13:35:35 GMT 23.215553 45.943958 37,025 93 515 0
2018-12-06 13:35:29 GMT 23.216492 45.928844 37,025 93 515 0
2018-12-06 13:35:25 GMT 23.217178 45.918308 37,025 93 515 0
2018-12-06 13:35:17 GMT 23.218414 45.897934 37,025 93 516 128
2018-12-06 13:35:14 GMT 23.218918 45.890190 37,025 93 515 64
2018-12-06 13:35:07 GMT 23.220245 45.869019 37,025 93 516 128
2018-12-06 13:35:03 GMT 23.220675 45.861919 37,000 93 516 128
2018-12-06 13:34:57 GMT 23.221746 45.844624 37,000 93 516 128
2018-12-06 13:34:52 GMT 23.222399 45.834045 36,975 93 516 64
2018-12-06 13:34:44 GMT 23.223770 45.810940 36,975 93 516 0
2018-12-06 13:34:41 GMT 23.224091 45.805748 36,975 93 516 0
2018-12-06 13:34:37 GMT 23.224911 45.792999 36,975 93 516 0
2018-12-06 13:34:31 GMT 23.225739 45.779430 36,975 93 516 64
2018-12-06 13:34:24 GMT 23.226791 45.761852 36,975 93 516 0
2018-12-06 13:34:20 GMT 23.227478 45.751015 36,975 93 516 0
2018-12-06 13:34:09 GMT 23.229218 45.722652 36,975 93 516 0
2018-12-06 13:34:01 GMT 23.230543 45.700531 36,975 93 516 0
2018-12-06 13:33:55 GMT 23.231689 45.681801 36,975 93 516 0
2018-12-06 13:33:48 GMT 23.232513 45.668118 36,975 93 516 0
2018-12-06 13:33:42 GMT 23.233475 45.652336 36,975 93 516 0
2018-12-06 13:33:37 GMT 23.234175 45.641071 36,975 93 516 0
2018-12-06 13:33:30 GMT 23.235397 45.620777 36,975 93 516 0
2018-12-06 13:33:25 GMT 23.236404 45.604996 36,975 93 517 -64
2018-12-06 13:33:13 GMT 23.237961 45.579128 37,000 93 517 -64
2018-12-06 13:33:05 GMT 23.239389 45.556286 37,000 93 517 0
2018-12-06 13:32:53 GMT 23.241394 45.523499 37,000 93 519 0
2018-12-06 13:32:43 GMT 23.242973 45.496929 37,000 93 519 0
2018-12-06 13:32:32 GMT 23.244461 45.471066 37,000 94 518 0
2018-12-06 13:32:21 GMT 23.246613 45.443348 37,000 95 516 0
2018-12-06 13:32:10 GMT 23.249769 45.413818 37,000 97 514 0
2018-12-06 13:32:00 GMT 23.253296 45.388416 37,000 99 512 -64
2018-12-06 13:31:49 GMT 23.257874 45.361301 37,000 101 511 0
2018-12-06 13:31:39 GMT 23.263039 45.335083 37,000 103 509 0
2018-12-06 13:31:28 GMT 23.269230 45.308025 37,000 105 507 0
2018-12-06 13:31:20 GMT 23.275373 45.284473 37,000 107 506 0
2018-12-06 13:31:16 GMT 23.276630 45.279846 37,000 107 506 0
2018-12-06 13:31:09 GMT 23.281998 45.261574 37,000 108 505 64
2018-12-06 13:31:06 GMT 23.283848 45.255432 37,000 108 504 64
2018-12-06 13:30:58 GMT 23.290741 45.234306 37,000 110 502 64
2018-12-06 13:30:55 GMT 23.292664 45.228615 37,000 110 502 64
2018-12-06 13:30:47 GMT 23.299116 45.210621 36,975 111 502 0
2018-12-06 13:30:43 GMT 23.302963 45.199951 36,975 111 502 0
2018-12-06 13:30:33 GMT 23.311218 45.177258 36,975 111 501 0
2018-12-06 13:30:28 GMT 23.317520 45.160000 36,975 111 501 0
2018-12-06 13:30:22 GMT 23.320576 45.151722 36,975 111 501 0
2018-12-06 13:30:11 GMT 23.329559 45.126942 36,975 111 503 0
2018-12-06 13:30:04 GMT 23.337433 45.105320 37,000 111 504 -64
2018-12-06 13:30:00 GMT 23.339104 45.100708 37,000 111 504 -64
2018-12-06 13:29:50 GMT 23.348089 45.075989 37,000 111 504 -64
2018-12-06 13:29:39 GMT 23.357677 45.049591 37,000 111 504 -64
2018-12-06 13:29:27 GMT 23.367641 45.022278 37,025 111 505 0
2018-12-06 13:29:16 GMT 23.377304 44.995705 37,025 111 506 0
2018-12-06 13:29:05 GMT 23.386726 44.969788 37,000 111 507 0
2018-12-06 13:28:54 GMT 23.396255 44.943569 37,000 111 508 0
2018-12-06 13:28:43 GMT 23.405813 44.917297 37,000 111 509 0
2018-12-06 13:28:32 GMT 23.414932 44.892185 37,000 111 510 0
2018-12-06 13:28:21 GMT 23.424316 44.866165 37,000 111 511 0
2018-12-06 13:28:11 GMT 23.433512 44.840698 37,000 111 511 0
2018-12-06 13:27:59 GMT 23.443428 44.813183 37,000 111 511 0
2018-12-06 13:27:49 GMT 23.452103 44.789112 37,000 111 511 0
2018-12-06 13:27:38 GMT 23.461487 44.762997 37,000 111 511 0
2018-12-06 13:27:27 GMT 23.471512 44.735229 37,000 111 512 -64
2018-12-06 13:27:16 GMT 23.480995 44.708965 37,025 111 512 -64
2018-12-06 13:27:05 GMT 23.490189 44.683495 37,025 111 511 64
2018-12-06 13:26:53 GMT 23.500214 44.655678 37,000 111 512 64
2018-12-06 13:26:42 GMT 23.509670 44.629364 37,000 111 513 0
2018-12-06 13:26:32 GMT 23.518433 44.604992 37,000 111 512 0
2018-12-06 13:26:22 GMT 23.527548 44.579670 37,000 111 511 0
2018-12-06 13:26:10 GMT 23.537842 44.551010 37,000 111 511 0
2018-12-06 13:26:00 GMT 23.546635 44.526707 37,000 111 510 0
2018-12-06 13:25:49 GMT 23.556084 44.500435 37,025 111 508 -64
2018-12-06 13:25:38 GMT 23.565353 44.474640 37,025 111 507 -64
2018-12-06 13:25:27 GMT 23.574554 44.448902 37,000 111 508 64
2018-12-06 13:25:16 GMT 23.584202 44.421818 36,975 111 511 128
2018-12-06 13:25:05 GMT 23.593185 44.396633 36,975 111 510 0
2018-12-06 13:24:52 GMT 23.604404 44.365334 37,000 111 508 0
2018-12-06 13:24:43 GMT 23.612137 44.343719 37,000 111 508 0
2018-12-06 13:24:33 GMT 23.620466 44.320248 37,000 111 508 64
2018-12-06 13:24:22 GMT 23.629898 44.293926 37,000 111 508 -128
2018-12-06 13:24:11 GMT 23.639008 44.268444 37,025 111 506 0
2018-12-06 13:24:00 GMT 23.648211 44.242668 37,000 111 505 64
2018-12-06 13:23:50 GMT 23.656870 44.218208 37,000 111 505 0
2018-12-06 13:23:39 GMT 23.666199 44.191944 37,000 111 506 0
2018-12-06 13:23:29 GMT 23.674896 44.167431 37,025 111 505 0
2018-12-06 13:23:18 GMT 23.684381 44.140682 37,000 111 505 0
2018-12-06 13:23:07 GMT 23.693115 44.116058 37,000 111 505 0
2018-12-06 13:22:56 GMT 23.702911 44.088490 37,000 111 506 64
2018-12-06 13:22:45 GMT 23.712219 44.062172 37,000 111 506 0
2018-12-06 13:22:33 GMT 23.721863 44.034882 37,000 111 506 0
2018-12-06 13:22:23 GMT 23.730560 44.010365 37,000 111 505 -64
2018-12-06 13:22:12 GMT 23.739779 43.984337 37,000 110 505 0
2018-12-06 13:22:01 GMT 23.748550 43.959503 37,000 111 504 0
2018-12-06 13:21:51 GMT 23.757330 43.934742 37,000 111 504 64
2018-12-06 13:21:40 GMT 23.766769 43.908031 37,000 110 506 0
2018-12-06 13:21:29 GMT 23.775284 43.881786 36,975 108 509 0
2018-12-06 13:21:18 GMT 23.782700 43.856178 36,975 106 511 0
2018-12-06 13:21:07 GMT 23.790380 43.828506 36,975 106 510 0
2018-12-06 13:20:57 GMT 23.797550 43.802647 36,975 106 510 0
2018-12-06 13:20:45 GMT 23.805359 43.774464 36,975 106 509 0
2018-12-06 13:20:35 GMT 23.812180 43.749847 36,975 106 509 0
2018-12-06 13:20:23 GMT 23.820314 43.720455 36,975 106 509 0
2018-12-06 13:20:13 GMT 23.827011 43.696239 37,000 106 509 -64
2018-12-06 13:20:03 GMT 23.834328 43.669773 37,000 106 509 -64
2018-12-06 13:19:52 GMT 23.841867 43.642464 37,025 106 509 -64
2018-12-06 13:19:41 GMT 23.849224 43.615620 37,025 106 509 0
2018-12-06 13:19:30 GMT 23.856159 43.590538 37,025 106 510 0
2018-12-06 13:19:19 GMT 23.863678 43.563282 37,025 106 511 0

Making use of Plane Finder data

You are free to use the raw flight data, aircraft information and images provided in this report for your own purposes provided the data is correctly attributed to Plane Finder. We ask that you please credit Plane Finder and link to planefinder.net in close proximity to the content.

Optionally one of the following logos (no smaller then 150x24px) can be used and must link to planefinder.net

Embedding the Plane Finder map

You are welcome to embed the Plane Finder playback map on your website to offer visitors a more interactive experience. We suggest using the following HTML code:

<iframe src="//planefinder.net/data/report/G91692-A6-AOT-7700-squawk-2018-12-06/map" width="800" height="600" seamless="seamless"></iframe>

Where our data comes from

Plane Finder has a global network of data feeds and antenna radars that receive data broadcast directly from aircraft. The primary technologies used are ADS-B and MLAT. We also show feeds from the FAA and a FLARM glider feed.

Click here to find out more about the Plane Finder network.

How we collect our data